»·PEaware :: WAT2489 KHWD-KLAS

WAT2489 :: KHWD-KLAS

FLIGHT INFORMATION

Flight Status: Arrived
Operator:
Walker Air Transport
More flights by this operator :: More flights under this callsign
Pilot: Graham D. (41507)
Aircraft: CANADAIR CL-600 CHALLENGER
(CL60)
More flights by this aircraft type
Origin: KHWD Hayward Executive
United States
Destination: KLAS Harry Reid Intl
United States
More flights between these airports :: More routes between these airports
Route: OSI V25 SNS NTELL Q174 FLCHR COKTL3
File this flight plan on PilotEdge
Remarks:
Altitude:
(Current/Filed)
41,000ft
Speed:
(Current/Filed)
461kts
Departed: 14-Nov-23 01:06 PM
Arrived: 14-Nov-23 02:09 PM
Distance/Time
Traveled:
347nm/1:03
Distance/Time
To Go:
Arrived

Flight Plot

Page will automatically refresh every two minutes.

Flight plan parsing failed; only flown route is shown


Map Options




Map Legend


Flown Route
Filed Route
Departure Airport
Arrival Airport
Navaid (VOR, NDB)
Fix

Horizontal Profiles

Position Reports

Time Latitude Longitude Heading Altitude Ground
Speed
14-Nov-23 12:45 37.663785 -122.124011 239 39ft 0kts
14-Nov-23 12:46 37.663785 -122.124011 239 39ft 0kts
14-Nov-23 12:47 37.663785 -122.124011 239 39ft 0kts
14-Nov-23 12:48 37.663785 -122.124011 239 39ft 0kts
14-Nov-23 12:49 37.663785 -122.124011 239 39ft 0kts
14-Nov-23 12:50 37.663785 -122.124011 239 39ft 0kts
14-Nov-23 12:51 37.663785 -122.124011 239 39ft 0kts
14-Nov-23 12:52 37.663785 -122.124011 239 39ft 0kts
14-Nov-23 12:52 37.663785 -122.124011 239 39ft 0kts
14-Nov-23 12:54 37.663785 -122.124011 239 39ft 0kts
14-Nov-23 12:55 37.663785 -122.124011 239 39ft 0kts
14-Nov-23 12:56 37.663785 -122.124011 239 39ft 0kts
14-Nov-23 12:57 37.663785 -122.124011 239 39ft 0kts
14-Nov-23 12:57 37.663785 -122.124011 239 39ft 0kts
14-Nov-23 12:58 37.663785 -122.124011 239 39ft 0kts
14-Nov-23 12:59 37.663785 -122.124012 239 39ft 0kts
14-Nov-23 13:01 37.663785 -122.124012 239 39ft 0kts
14-Nov-23 13:02 37.664114 -122.124526 297 40ft 5kts
14-Nov-23 13:02 37.663153 -122.126355 218 37ft 4kts
14-Nov-23 13:03 37.663255 -122.127518 253 36ft 0kts
14-Nov-23 13:04 37.663099 -122.128068 244 36ft 6kts
14-Nov-23 13:05 37.660248 -122.125894 120 36ft 80kts
14-Nov-23 13:07 37.624258 -122.099157 197 2402ft 183kts
14-Nov-23 13:07 37.586315 -122.126242 209 3307ft 186kts
14-Nov-23 13:08 37.538849 -122.164167 209 6314ft 230kts
14-Nov-23 13:09 37.481345 -122.210154 210 11210ft 260kts
14-Nov-23 13:10 37.414776 -122.197792 137 15680ft 299kts
14-Nov-23 13:11 37.377925 -122.094429 114 18918ft 353kts
14-Nov-23 13:12 37.350225 -121.968113 112 21431ft 381kts
14-Nov-23 13:13 37.322507 -121.835444 112 24514ft 398kts
14-Nov-23 13:14 37.293534 -121.696771 112 27195ft 414kts
14-Nov-23 13:15 37.263655 -121.554431 111 29490ft 428kts
14-Nov-23 13:16 37.232715 -121.407976 111 31302ft 440kts
14-Nov-23 13:17 37.200594 -121.256941 112 32726ft 452kts
14-Nov-23 13:18 37.167639 -121.103010 112 33989ft 461kts
14-Nov-23 13:19 37.134458 -120.948833 112 35732ft 454kts
14-Nov-23 13:20 37.101448 -120.796678 112 37122ft 451kts
14-Nov-23 13:21 37.068295 -120.644936 112 38332ft 449kts
14-Nov-23 13:22 37.035153 -120.494353 112 39345ft 449kts
14-Nov-23 13:23 37.001766 -120.343628 112 40160ft 450kts
14-Nov-23 13:24 36.968266 -120.193396 112 40790ft 452kts
14-Nov-23 13:25 36.933982 -120.040733 112 41060ft 462kts
14-Nov-23 13:26 36.915556 -119.877335 88 41063ft 493kts
14-Nov-23 13:27 36.957456 -119.710146 69 41065ft 515kts
14-Nov-23 13:28 37.012653 -119.542226 69 41064ft 522kts
14-Nov-23 13:29 37.067581 -119.373580 69 41067ft 524kts
14-Nov-23 13:30 37.122335 -119.204178 70 41064ft 523kts
14-Nov-23 13:31 37.176723 -119.034676 70 41083ft 524kts
14-Nov-23 13:32 37.230935 -118.864607 70 41124ft 524kts
14-Nov-23 13:33 37.275012 -118.691044 81 41138ft 520kts
14-Nov-23 13:34 37.292778 -118.511109 87 41139ft 518kts
14-Nov-23 13:35 37.306433 -118.331264 88 41135ft 518kts
14-Nov-23 13:36 37.319797 -118.151219 88 41138ft 517kts
14-Nov-23 13:37 37.332868 -117.971168 88 41142ft 517kts
14-Nov-23 13:38 37.345675 -117.790815 88 41144ft 518kts
14-Nov-23 13:39 37.358222 -117.610189 88 41145ft 519kts
14-Nov-23 13:40 37.370357 -117.429241 90 41143ft 518kts
14-Nov-23 13:41 37.344794 -117.257311 121 41142ft 494kts
14-Nov-23 13:42 37.266406 -117.121310 137 41146ft 480kts
14-Nov-23 13:43 37.179573 -116.994303 138 40960ft 479kts
14-Nov-23 13:44 37.091301 -116.871786 146 39927ft 468kts
14-Nov-23 13:45 36.988011 -116.779405 152 37544ft 455kts
14-Nov-23 13:46 36.882876 -116.689019 151 35115ft 461kts
14-Nov-23 13:47 36.776570 -116.598079 151 32650ft 466kts
14-Nov-23 13:48 36.669680 -116.506933 150 30180ft 466kts
14-Nov-23 13:49 36.579641 -116.393353 135 27735ft 457kts
14-Nov-23 13:50 36.498347 -116.276174 136 25358ft 436kts
14-Nov-23 13:51 36.421157 -116.166811 137 23259ft 405kts
14-Nov-23 13:52 36.349051 -116.065470 137 21508ft 379kts
14-Nov-23 13:53 36.281627 -115.971141 138 19852ft 353kts
14-Nov-23 13:54 36.220124 -115.879982 135 18341ft 344kts
14-Nov-23 13:55 36.161803 -115.787312 134 16997ft 337kts
14-Nov-23 13:56 36.116801 -115.686189 114 15714ft 340kts
14-Nov-23 13:57 36.085169 -115.577858 115 14432ft 329kts
14-Nov-23 13:58 36.053094 -115.473082 114 13190ft 319kts
14-Nov-23 13:59 36.021452 -115.370944 114 11974ft 309kts
14-Nov-23 14:00 36.010452 -115.269109 95 10834ft 289kts
14-Nov-23 14:01 36.006015 -115.174464 96 9782ft 259kts
14-Nov-23 14:02 36.008406 -115.090914 53 8398ft 244kts
14-Nov-23 14:03 36.061514 -115.046422 33 6536ft 206kts
14-Nov-23 14:04 36.109129 -115.038409 308 4311ft 186kts
14-Nov-23 14:05 36.129936 -115.090430 291 3521ft 153kts
14-Nov-23 14:06 36.133759 -115.138685 215 2855ft 149kts
14-Nov-23 14:07 36.097488 -115.157692 203 2221ft 138kts
14-Nov-23 14:08 36.083591 -115.166892 227 2186ft 0kts
14-Nov-23 14:09 36.083262 -115.167256 219 2186ft 6kts
14-Nov-23 14:10 36.081461 -115.170102 271 2186ft 15kts
14-Nov-23 14:11 36.081167 -115.171156 89 2186ft 0kts

Navigation Log

Ident Type
Flight plan parsing failed, navigation log unavailable